Time;durP1;ratioP1;P1;durP2;ratioP2;P2;SDS_P1;SDS_P2;PMS_P1;PMS_P2;Temp;Humidity;BMP_temperature;BMP_pressure;BME280_temperature;BME280_humidity;BME280_pressure;Samples;Min_cycle;Max_cycle;Signal;HPM_P1;HPM_P2
2023/07/21 00:02:12;;;;;;;3.17;2.08;;;15.10;99.90;;;;;;5010907;28;20042;-63
2023/07/21 00:04:37;;;;;;;5.22;2.50;;;15.20;99.90;;;;;;5012342;28;20052;-63
2023/07/21 00:07:03;;;;;;;4.13;2.90;;;15.10;99.90;;;;;;5011598;28;20591;-63
2023/07/21 00:09:29;;;;;;;3.72;2.50;;;15.00;99.90;;;;;;5012557;28;20038;-63
2023/07/21 00:11:54;;;;;;;5.47;2.58;;;15.00;99.90;;;;;;5012109;28;20037;-63
2023/07/21 00:14:20;;;;;;;3.78;2.60;;;15.00;99.90;;;;;;5011432;28;20436;-63
2023/07/21 00:16:46;;;;;;;4.05;2.60;;;15.10;99.90;;;;;;5011318;28;20496;-63
2023/07/21 00:19:12;;;;;;;6.43;2.60;;;15.10;99.90;;;;;;5011716;28;20037;-63
2023/07/21 00:21:38;;;;;;;3.05;2.30;;;15.00;99.90;;;;;;5011216;28;20104;-63
2023/07/21 00:24:04;;;;;;;4.80;2.60;;;15.00;99.90;;;;;;5012355;28;20045;-63
2023/07/21 00:26:30;;;;;;;4.75;2.50;;;14.90;99.90;;;;;;5010350;28;20034;-63
2023/07/21 00:28:57;;;;;;;3.92;2.63;;;15.00;99.90;;;;;;5010317;28;20508;-63
2023/07/21 00:31:22;;;;;;;4.07;2.60;;;15.00;99.90;;;;;;5010665;28;20113;-62
2023/07/21 00:33:48;;;;;;;4.13;2.45;;;14.90;99.90;;;;;;5012429;28;20125;-63
2023/07/21 00:36:14;;;;;;;5.88;3.00;;;14.90;99.90;;;;;;5011520;28;20034;-63
2023/07/21 00:38:40;;;;;;;3.85;2.70;;;14.90;99.90;;;;;;5011085;28;20030;-63
2023/07/21 00:41:06;;;;;;;4.60;2.33;;;14.90;99.90;;;;;;5009703;28;20041;-63
2023/07/21 00:43:32;;;;;;;2.45;2.25;;;14.90;99.90;;;;;;5007217;28;20045;-63
2023/07/21 00:45:58;;;;;;;2.72;2.13;;;14.90;99.90;;;;;;5010034;28;20053;-63
2023/07/21 00:48:24;;;;;;;4.18;2.10;;;14.90;99.90;;;;;;5011672;28;20038;-63
2023/07/21 00:50:53;;;;;;;2.47;2.25;;;14.90;99.90;;;;;;5010588;28;20026;-63
2023/07/21 00:53:19;;;;;;;3.78;2.30;;;14.90;99.90;;;;;;5011754;28;20040;-63
2023/07/21 00:55:48;;;;;;;3.55;2.20;;;14.80;99.90;;;;;;5009847;28;20546;-63
2023/07/21 00:58:14;;;;;;;3.47;2.50;;;14.80;99.90;;;;;;5004002;28;20034;-63
2023/07/21 01:00:40;;;;;;;2.50;2.20;;;14.80;99.90;;;;;;5010766;28;20095;-63
2023/07/21 01:03:09;;;;;;;3.40;2.45;;;14.80;99.90;;;;;;5011964;28;20042;-63
2023/07/21 01:05:43;;;;;;;2.67;2.30;;;14.70;99.90;;;;;;5011192;28;20038;-63
2023/07/21 01:08:11;;;;;;;4.47;2.95;;;14.70;99.90;;;;;;5010600;28;20435;-63
2023/07/21 01:10:39;;;;;;;4.03;2.50;;;14.70;99.90;;;;;;5010018;28;20034;-63
2023/07/21 01:13:05;;;;;;;4.88;2.60;;;14.70;99.90;;;;;;5010006;28;20045;-63
2023/07/21 01:15:34;;;;;;;4.55;2.55;;;14.70;99.90;;;;;;5010650;28;20077;-63
2023/07/21 01:18:00;;;;;;;4.28;2.90;;;14.70;99.90;;;;;;5009859;28;20046;-63
2023/07/21 01:20:27;;;;;;;6.07;2.78;;;14.70;99.90;;;;;;5011472;28;20037;-63
2023/07/21 01:23:00;;;;;;;8.27;2.90;;;14.70;99.90;;;;;;5008301;28;20046;-63
2023/07/21 01:25:28;;;;;;;4.03;2.30;;;14.70;99.90;;;;;;5009427;28;20117;-63
2023/07/21 01:27:55;;;;;;;6.13;2.53;;;14.80;99.90;;;;;;5007320;28;20095;-63
2023/07/21 01:30:22;;;;;;;2.50;2.30;;;14.70;99.90;;;;;;5007631;28;20113;-63
2023/07/21 01:32:50;;;;;;;2.40;2.00;;;14.80;99.90;;;;;;5009768;28;20038;-62
2023/07/21 01:35:17;;;;;;;3.97;2.28;;;14.80;99.90;;;;;;5011717;28;20075;-63
2023/07/21 01:37:45;;;;;;;3.65;2.60;;;14.80;99.90;;;;;;5009494;28;20053;-63
2023/07/21 01:40:13;;;;;;;3.70;2.67;;;14.80;99.90;;;;;;5008084;28;20057;-63
2023/07/21 01:42:41;;;;;;;5.82;2.38;;;14.70;99.90;;;;;;5011112;28;20038;-63
2023/07/21 01:45:07;;;;;;;4.35;3.00;;;14.70;99.90;;;;;;5008523;28;20775;-63
2023/07/21 01:47:34;;;;;;;3.70;2.92;;;14.70;99.90;;;;;;5010200;28;20042;-63
2023/07/21 01:50:01;;;;;;;4.20;2.95;;;14.60;99.90;;;;;;5009527;28;20030;-63
2023/07/21 01:52:29;;;;;;;3.33;2.40;;;14.60;99.90;;;;;;5010102;28;20053;-63
2023/07/21 01:55:13;;;;;;;3.35;2.30;;;14.60;99.90;;;;;;5010435;28;20046;-63
2023/07/21 01:57:43;;;;;;;4.50;2.30;;;14.60;99.90;;;;;;5008409;28;20041;-63
2023/07/21 02:00:11;;;;;;;4.65;2.70;;;14.60;99.90;;;;;;5009527;28;20125;-63
2023/07/21 02:02:40;;;;;;;3.08;2.50;;;14.70;99.90;;;;;;5008549;28;20054;-63
2023/07/21 02:05:06;;;;;;;3.10;2.50;;;14.70;99.90;;;;;;5008603;28;20038;-63
2023/07/21 02:07:32;;;;;;;4.22;2.60;;;14.70;99.90;;;;;;5012919;28;20546;-63
2023/07/21 02:09:58;;;;;;;4.35;2.60;;;14.70;99.90;;;;;;5013909;28;20070;-63
2023/07/21 02:12:24;;;;;;;3.67;2.83;;;14.60;99.90;;;;;;5014140;28;20065;-63
2023/07/21 02:14:50;;;;;;;4.95;2.85;;;14.60;99.90;;;;;;5009867;28;20072;-63
2023/07/21 02:17:16;;;;;;;4.07;2.80;;;14.50;99.90;;;;;;5013000;28;20397;-63
2023/07/21 02:19:42;;;;;;;4.95;3.08;;;14.50;99.90;;;;;;5013864;28;20041;-62
2023/07/21 02:22:07;;;;;;;6.03;3.20;;;14.50;99.90;;;;;;5014360;28;20045;-63
2023/07/21 02:24:33;;;;;;;6.38;3.47;;;14.40;99.90;;;;;;5013917;28;20038;-63
2023/07/21 02:27:01;;;;;;;7.13;3.80;;;14.40;99.90;;;;;;5013173;28;20566;-63
2023/07/21 02:29:27;;;;;;;4.38;3.50;;;14.40;99.90;;;;;;5013331;28;20128;-63
2023/07/21 02:31:53;;;;;;;6.47;3.60;;;14.40;99.90;;;;;;5012038;28;20113;-63
2023/07/21 02:34:19;;;;;;;5.97;3.85;;;14.30;99.90;;;;;;5014104;28;20045;-63
2023/07/21 02:36:45;;;;;;;4.68;3.78;;;14.30;99.90;;;;;;5012890;28;20045;-63
2023/07/21 02:39:10;;;;;;;4.35;3.83;;;14.30;99.90;;;;;;5013407;28;20089;-63
2023/07/21 02:41:36;;;;;;;6.00;3.50;;;14.30;99.90;;;;;;5011566;28;20042;-63
2023/07/21 02:44:03;;;;;;;5.57;3.78;;;14.30;99.90;;;;;;5011985;28;20045;-63
2023/07/21 02:46:28;;;;;;;5.80;4.03;;;14.30;99.90;;;;;;5014276;28;20041;-63
2023/07/21 02:48:54;;;;;;;5.13;3.72;;;14.40;99.90;;;;;;5014421;28;20038;-63
2023/07/21 02:51:19;;;;;;;5.53;3.70;;;14.40;99.90;;;;;;5012603;28;20405;-63
2023/07/21 02:53:45;;;;;;;4.90;3.70;;;14.30;99.90;;;;;;5012966;28;20120;-63
2023/07/21 02:56:11;;;;;;;6.43;3.28;;;14.30;99.90;;;;;;5013040;28;20076;-63
2023/07/21 02:58:36;;;;;;;3.67;3.20;;;14.30;99.90;;;;;;5014008;28;20041;-63
2023/07/21 03:01:03;;;;;;;4.53;3.25;;;14.40;99.90;;;;;;5012671;28;20463;-63
2023/07/21 03:03:32;;;;;;;5.50;3.25;;;14.40;99.90;;;;;;5014033;28;20502;-63
2023/07/21 03:05:58;;;;;;;6.43;2.92;;;14.30;99.90;;;;;;5013123;28;20451;-63
2023/07/21 03:08:28;;;;;;;2.83;2.50;;;14.30;99.90;;;;;;5012352;28;20411;-63
2023/07/21 03:10:55;;;;;;;5.43;3.20;;;14.30;99.90;;;;;;5011233;28;20053;-62
2023/07/21 03:13:22;;;;;;;5.72;3.35;;;14.30;99.90;;;;;;5013233;28;20423;-63
2023/07/21 03:15:48;;;;;;;4.47;2.88;;;14.30;99.90;;;;;;5013162;28;20038;-63
2023/07/21 03:18:13;;;;;;;4.72;2.90;;;14.30;99.90;;;;;;5013023;28;20034;-63
2023/07/21 03:20:39;;;;;;;6.57;3.53;;;14.20;99.90;;;;;;5009607;28;20569;-63
2023/07/21 03:23:07;;;;;;;3.50;3.13;;;14.20;99.90;;;;;;5012646;28;20044;-63
2023/07/21 03:25:34;;;;;;;4.88;3.85;;;14.20;99.90;;;;;;5013149;28;20045;-63
2023/07/21 03:27:59;;;;;;;5.65;3.90;;;14.20;99.90;;;;;;5012747;28;20484;-63
2023/07/21 03:30:25;;;;;;;3.90;3.30;;;14.30;99.90;;;;;;5012474;28;20069;-63
2023/07/21 03:32:51;;;;;;;5.38;3.58;;;14.20;99.90;;;;;;5013149;28;20866;-63
2023/07/21 03:35:16;;;;;;;4.93;3.05;;;14.30;99.90;;;;;;5013752;28;20129;-63
2023/07/21 03:37:42;;;;;;;8.20;3.88;;;14.30;99.90;;;;;;5012505;28;20042;-63
2023/07/21 03:40:09;;;;;;;5.13;3.53;;;14.30;99.90;;;;;;5011112;28;20052;-63
2023/07/21 03:42:35;;;;;;;4.93;3.30;;;14.20;99.90;;;;;;5011576;28;20077;-63
2023/07/21 03:45:05;;;;;;;4.82;3.10;;;14.20;99.90;;;;;;5011957;28;20038;-63
2023/07/21 03:47:34;;;;;;;3.70;2.80;;;14.20;99.90;;;;;;5010098;28;20030;-63
2023/07/21 03:50:01;;;;;;;3.47;2.72;;;14.20;99.90;;;;;;5011444;28;20038;-63
2023/07/21 03:52:27;;;;;;;6.03;3.50;;;14.30;99.90;;;;;;5012584;28;20065;-63
2023/07/21 03:54:53;;;;;;;3.92;3.20;;;14.20;99.90;;;;;;5011108;28;20041;-63
2023/07/21 03:57:20;;;;;;;4.00;3.30;;;14.20;99.90;;;;;;5010853;28;20064;-63
2023/07/21 03:59:46;;;;;;;3.72;3.00;;;14.30;99.90;;;;;;5011606;28;20038;-63
2023/07/21 04:02:11;;;;;;;4.00;3.35;;;14.20;99.90;;;;;;5009625;28;20061;-63
2023/07/21 04:04:37;;;;;;;5.85;3.60;;;14.20;99.90;;;;;;5007370;28;20039;-63
2023/07/21 04:07:05;;;;;;;4.68;3.20;;;14.10;99.90;;;;;;5011167;28;20412;-63
2023/07/21 04:09:34;;;;;;;5.95;4.20;;;14.20;99.90;;;;;;5011424;28;20037;-63
2023/07/21 04:12:00;;;;;;;4.05;3.13;;;14.20;99.90;;;;;;5010006;28;20046;-63
2023/07/21 04:14:26;;;;;;;8.25;3.30;;;14.20;99.90;;;;;;5011402;28;20119;-63
2023/07/21 04:16:52;;;;;;;5.82;3.60;;;14.20;99.90;;;;;;5012187;28;20423;-63
2023/07/21 04:19:18;;;;;;;5.28;3.50;;;14.10;99.90;;;;;;5012342;28;20540;-63
2023/07/21 04:21:43;;;;;;;5.03;3.67;;;14.10;99.90;;;;;;5002762;28;20126;-63
2023/07/21 04:24:10;;;;;;;3.30;3.00;;;14.10;99.90;;;;;;5010377;28;20040;-63
2023/07/21 04:26:36;;;;;;;4.82;3.53;;;14.10;99.90;;;;;;5010644;28;20041;-63
2023/07/21 04:29:02;;;;;;;5.80;3.47;;;14.00;99.90;;;;;;5011490;28;20046;-63
2023/07/21 04:31:28;;;;;;;5.45;3.08;;;14.00;99.90;;;;;;5007827;28;20124;-63
2023/07/21 04:33:55;;;;;;;6.47;3.08;;;13.90;99.90;;;;;;5005037;28;20107;-63
2023/07/21 04:36:21;;;;;;;3.20;2.80;;;13.90;99.90;;;;;;5009742;28;20152;-63
2023/07/21 04:38:47;;;;;;;5.68;3.90;;;14.00;99.90;;;;;;5011241;28;20109;-63
2023/07/21 04:41:13;;;;;;;5.80;4.03;;;14.00;99.90;;;;;;5011334;28;20126;-63
2023/07/21 04:43:39;;;;;;;5.35;4.05;;;14.00;99.90;;;;;;5008724;28;20072;-63
2023/07/21 04:46:05;;;;;;;8.15;4.35;;;14.10;99.90;;;;;;5007098;28;20037;-63
2023/07/21 04:48:31;;;;;;;5.63;4.03;;;14.10;99.90;;;;;;5009293;28;20530;-63
2023/07/21 04:50:57;;;;;;;6.93;4.80;;;14.10;99.90;;;;;;5008146;28;20030;-63
2023/07/21 04:53:23;;;;;;;5.97;4.75;;;14.10;99.90;;;;;;5004011;28;20407;-63
2023/07/21 04:55:53;;;;;;;7.68;4.13;;;14.00;99.90;;;;;;5009670;28;20045;-63
2023/07/21 04:58:19;;;;;;;5.72;4.47;;;14.00;99.90;;;;;;5008627;28;20488;-63
2023/07/21 05:00:44;;;;;;;6.95;4.75;;;14.00;99.90;;;;;;5008007;28;20034;-63
2023/07/21 05:03:10;;;;;;;6.60;4.22;;;14.00;99.90;;;;;;5008261;28;20034;-63
2023/07/21 05:05:36;;;;;;;5.30;4.15;;;14.10;99.90;;;;;;5010994;28;20100;-62
2023/07/21 05:08:01;;;;;;;6.18;4.45;;;14.10;99.90;;;;;;5011144;28;20037;-62
2023/07/21 05:10:27;;;;;;;7.30;4.70;;;14.10;99.90;;;;;;5011127;28;20037;-63
2023/07/21 05:12:53;;;;;;;8.63;4.78;;;14.10;99.90;;;;;;5034457;23;20052;-66
2023/07/21 05:15:19;;;;;;;7.88;5.00;;;14.10;99.90;;;;;;5050723;28;20033;-66
2023/07/21 05:17:44;;;;;;;7.47;4.90;;;14.10;99.90;;;;;;5049471;28;20037;-66
2023/07/21 05:20:11;;;;;;;8.27;4.40;;;14.20;99.90;;;;;;5050390;28;20045;-66
2023/07/21 05:22:37;;;;;;;7.88;4.72;;;14.30;99.90;;;;;;5051059;28;20156;-66
2023/07/21 05:25:05;;;;;;;5.88;4.15;;;14.50;99.90;;;;;;5050487;28;20123;-66
2023/07/21 05:27:31;;;;;;;6.82;4.75;;;14.60;99.90;;;;;;5039892;28;20048;-66
2023/07/21 05:29:59;;;;;;;7.15;4.50;;;14.70;99.90;;;;;;5042795;28;20033;-66
2023/07/21 05:32:25;;;;;;;7.80;4.75;;;14.80;99.90;;;;;;5049360;28;20068;-66
2023/07/21 05:34:51;;;;;;;8.90;5.05;;;14.80;99.90;;;;;;5045398;28;20118;-66
2023/07/21 05:37:17;;;;;;;8.30;4.47;;;14.80;99.90;;;;;;5050421;28;20035;-66
2023/07/21 05:39:42;;;;;;;8.23;4.90;;;14.80;99.90;;;;;;5051329;28;20044;-66
2023/07/21 05:42:08;;;;;;;5.72;4.32;;;14.80;99.90;;;;;;5051495;28;20124;-66
2023/07/21 05:44:34;;;;;;;8.25;4.97;;;14.90;99.90;;;;;;5048813;28;20069;-66
2023/07/21 05:47:00;;;;;;;6.60;4.53;;;15.00;99.90;;;;;;5054044;28;20115;-66
2023/07/21 05:49:26;;;;;;;7.90;4.18;;;15.10;99.90;;;;;;5050769;28;20036;-66
2023/07/21 05:51:52;;;;;;;8.48;4.18;;;15.20;99.90;;;;;;5054515;28;20037;-66
2023/07/21 05:54:18;;;;;;;8.77;4.72;;;15.20;99.90;;;;;;5054608;28;20041;-66
2023/07/21 05:56:44;;;;;;;7.72;4.40;;;15.30;99.90;;;;;;5054553;28;20037;-66
2023/07/21 05:59:11;;;;;;;5.43;3.60;;;15.40;99.90;;;;;;5041862;28;20047;-66
2023/07/21 06:01:37;;;;;;;6.13;4.20;;;15.50;99.90;;;;;;5050463;28;20384;-66
2023/07/21 06:04:04;;;;;;;6.05;4.18;;;15.60;99.90;;;;;;5054604;28;20497;-66
2023/07/21 06:06:31;;;;;;;10.43;4.30;;;15.70;99.90;;;;;;5053198;28;20033;-66
2023/07/21 06:08:56;;;;;;;6.68;4.10;;;15.90;99.90;;;;;;5048375;28;20100;-66
2023/07/21 06:11:25;;;;;;;5.10;3.70;;;15.90;99.90;;;;;;5053486;28;20538;-66
2023/07/21 06:13:50;;;;;;;10.15;3.58;;;15.90;99.90;;;;;;5054235;28;20037;-66
2023/07/21 06:16:16;;;;;;;5.88;3.53;;;16.00;99.90;;;;;;5048816;28;20033;-66
2023/07/21 06:18:42;;;;;;;5.35;2.67;;;16.10;99.90;;;;;;5041921;28;20392;-66
2023/07/21 06:21:11;;;;;;;4.50;2.70;;;16.10;99.90;;;;;;5053125;28;20116;-66
2023/07/21 06:23:37;;;;;;;3.97;2.67;;;16.30;99.90;;;;;;5044685;28;20517;-66
2023/07/21 06:26:03;;;;;;;3.60;2.38;;;16.40;99.90;;;;;;5052740;28;20121;-66
2023/07/21 06:28:29;;;;;;;5.07;2.70;;;16.50;99.90;;;;;;5047724;28;20484;-66
2023/07/21 06:30:55;;;;;;;4.28;2.50;;;16.50;99.90;;;;;;5043431;28;20116;-67
2023/07/21 06:33:20;;;;;;;3.50;2.40;;;16.50;99.90;;;;;;5044689;28;20029;-66
2023/07/21 06:35:46;;;;;;;6.85;2.10;;;16.60;99.90;;;;;;5048726;28;20091;-66
2023/07/21 06:38:11;;;;;;;2.92;1.85;;;16.70;99.90;;;;;;5054183;28;20102;-66
2023/07/21 06:40:37;;;;;;;5.30;2.45;;;16.80;99.90;;;;;;5046078;28;20032;-66
2023/07/21 06:43:03;;;;;;;5.07;2.25;;;17.10;99.90;;;;;;5047664;28;20033;-67
2023/07/21 06:45:29;;;;;;;4.22;1.73;;;17.20;99.90;;;;;;5037457;28;20442;-67
2023/07/21 06:47:54;;;;;;;4.35;1.90;;;17.40;99.90;;;;;;5045810;28;20413;-66
2023/07/21 06:50:20;;;;;;;2.58;1.40;;;17.50;99.90;;;;;;5048284;28;20048;-66
2023/07/21 06:52:46;;;;;;;5.15;1.73;;;17.70;99.90;;;;;;5049519;28;20487;-67
2023/07/21 06:55:12;;;;;;;2.85;1.52;;;17.90;99.90;;;;;;5039376;28;20043;-66
2023/07/21 06:57:37;;;;;;;3.55;1.70;;;18.00;99.90;;;;;;5048650;28;20072;-66
2023/07/21 07:00:05;;;;;;;3.63;1.50;;;18.10;99.90;;;;;;5042744;28;20063;-66
2023/07/21 07:02:31;;;;;;;3.28;2.05;;;18.10;99.90;;;;;;5045498;28;20052;-66
2023/07/21 07:04:57;;;;;;;4.70;1.50;;;18.20;99.90;;;;;;5043724;28;20474;-66
2023/07/21 07:07:22;;;;;;;2.33;1.42;;;18.30;99.90;;;;;;5054449;28;20065;-66
2023/07/21 07:09:48;;;;;;;3.70;1.52;;;18.40;99.90;;;;;;5050541;28;20099;-66
2023/07/21 07:12:14;;;;;;;1.90;1.70;;;18.70;99.90;;;;;;5045309;28;20413;-66
2023/07/21 07:14:39;;;;;;;2.42;1.50;;;18.80;99.90;;;;;;5046805;28;20037;-66
2023/07/21 07:17:05;;;;;;;2.53;1.65;;;19.00;99.90;;;;;;5049536;28;20044;-66
2023/07/21 07:19:31;;;;;;;2.78;1.50;;;19.00;99.90;;;;;;5033640;28;20465;-66
2023/07/21 07:21:56;;;;;;;4.03;1.90;;;19.10;99.90;;;;;;5053595;28;20069;-66
2023/07/21 07:24:22;;;;;;;3.40;1.65;;;19.20;99.90;;;;;;5047780;28;20406;-66
2023/07/21 07:26:48;;;;;;;3.80;1.50;;;19.10;99.90;;;;;;5047375;28;20040;-66
2023/07/21 07:29:15;;;;;;;3.10;1.60;;;19.10;99.90;;;;;;5033033;28;20407;-66
2023/07/21 07:31:42;;;;;;;2.05;1.38;;;19.00;99.90;;;;;;5050104;28;20045;-66
2023/07/21 07:34:07;;;;;;;2.67;1.40;;;18.90;99.90;;;;;;5052474;28;20416;-66
2023/07/21 07:36:33;;;;;;;2.65;1.27;;;19.00;99.90;;;;;;5049340;28;20510;-66
2023/07/21 07:38:58;;;;;;;2.47;1.50;;;19.10;99.90;;;;;;5041272;28;20110;-66
2023/07/21 07:41:24;;;;;;;3.70;1.23;;;19.20;99.90;;;;;;5033131;28;20040;-66
2023/07/21 07:43:50;;;;;;;2.65;1.40;;;19.40;99.90;;;;;;5034360;28;20514;-66
2023/07/21 07:46:17;;;;;;;1.75;1.33;;;19.60;99.90;;;;;;5033622;28;20069;-69
2023/07/21 07:48:44;;;;;;;2.05;1.30;;;19.70;99.90;;;;;;5044673;28;20158;-69
2023/07/21 07:51:10;;;;;;;4.05;1.50;;;19.80;99.90;;;;;;5045045;28;20048;-69
2023/07/21 07:53:36;;;;;;;2.25;1.30;;;20.10;99.90;;;;;;5032601;28;20037;-69
2023/07/21 07:56:02;;;;;;;3.75;1.52;;;20.30;99.90;;;;;;5044080;28;20479;-68
2023/07/21 07:58:28;;;;;;;1.70;1.10;;;20.40;99.90;;;;;;5051593;28;20048;-69
2023/07/21 08:00:58;;;;;;;3.70;1.33;;;20.50;99.90;;;;;;5049475;28;20037;-68
2023/07/21 08:03:25;;;;;;;3.22;1.40;;;20.50;99.90;;;;;;5033914;28;20041;-69
2023/07/21 08:05:51;;;;;;;2.92;1.27;;;20.60;99.90;;;;;;5051327;28;20036;-69
2023/07/21 08:08:18;;;;;;;2.05;1.15;;;20.70;99.90;;;;;;5038830;28;20108;-68
2023/07/21 08:10:47;;;;;;;3.75;1.58;;;20.80;99.90;;;;;;5044191;28;20120;-68
2023/07/21 08:13:13;;;;;;;4.80;1.33;;;20.80;99.90;;;;;;5044537;28;20112;-68
2023/07/21 08:15:40;;;;;;;5.57;1.33;;;20.90;99.90;;;;;;5051730;28;20124;-68
2023/07/21 08:18:06;;;;;;;2.10;1.40;;;21.00;99.90;;;;;;5045797;28;20442;-68
2023/07/21 08:20:32;;;;;;;2.05;1.30;;;21.00;99.90;;;;;;5049885;28;20045;-68
2023/07/21 08:22:57;;;;;;;3.33;1.40;;;21.20;99.90;;;;;;5049158;28;20041;-69
2023/07/21 08:25:25;;;;;;;2.78;1.20;;;21.30;99.90;;;;;;5051715;28;20390;-68
2023/07/21 08:27:50;;;;;;;3.67;1.30;;;21.40;99.90;;;;;;5052373;28;20200;-68
2023/07/21 08:30:16;;;;;;;1.73;1.40;;;21.40;99.90;;;;;;5051493;28;20119;-68
2023/07/21 08:32:42;;;;;;;1.85;1.30;;;21.50;99.90;;;;;;5044716;28;20048;-69
2023/07/21 08:35:09;;;;;;;1.73;1.35;;;21.60;99.90;;;;;;5042924;28;20045;-68
2023/07/21 08:37:34;;;;;;;1.70;1.35;;;21.70;99.90;;;;;;5044281;28;20479;-68
2023/07/21 08:40:00;;;;;;;1.75;1.15;;;21.80;99.90;;;;;;5048750;28;20067;-68
2023/07/21 08:42:26;;;;;;;1.88;1.17;;;21.90;99.90;;;;;;5051726;28;20044;-68
2023/07/21 08:44:53;;;;;;;2.45;1.20;;;21.90;99.90;;;;;;5050541;28;20033;-68
2023/07/21 08:47:20;;;;;;;1.95;1.30;;;22.00;99.80;;;;;;5051633;28;20108;-68
2023/07/21 08:49:46;;;;;;;3.55;1.00;;;22.00;99.60;;;;;;5049997;28;20481;-68
2023/07/21 08:52:13;;;;;;;1.95;1.02;;;21.90;98.80;;;;;;5047497;28;20393;-68
2023/07/21 08:54:38;;;;;;;1.58;1.02;;;22.00;98.40;;;;;;5038779;28;20041;-68
2023/07/21 08:57:04;;;;;;;1.35;0.80;;;22.10;97.00;;;;;;5043419;28;20040;-68
2023/07/21 08:59:30;;;;;;;1.80;0.88;;;22.10;96.00;;;;;;5042413;28;20425;-68
2023/07/21 09:01:55;;;;;;;1.83;0.80;;;22.30;95.10;;;;;;5045638;28;20098;-68
2023/07/21 09:04:23;;;;;;;2.15;0.75;;;22.50;93.90;;;;;;5041264;28;20109;-68
2023/07/21 09:06:58;;;;;;;1.73;0.93;;;22.50;92.50;;;;;;5043388;28;20029;-68
2023/07/21 09:09:31;;;;;;;1.27;0.80;;;22.60;91.80;;;;;;5045976;28;20045;-68
2023/07/21 09:12:04;;;;;;;1.38;0.90;;;22.60;92.40;;;;;;5046348;28;20041;-68
2023/07/21 09:14:36;;;;;;;4.78;1.02;;;22.70;92.50;;;;;;5043097;28;20047;-69
2023/07/21 09:17:07;;;;;;;5.90;1.80;;;22.90;92.60;;;;;;5045738;28;20033;-69
2023/07/21 09:19:37;;;;;;;2.92;1.05;;;23.00;93.10;;;;;;5047270;28;20036;-68
2023/07/21 09:22:03;;;;;;;1.40;0.90;;;23.10;92.20;;;;;;5042270;28;20029;-67
2023/07/21 09:24:29;;;;;;;1.35;1.20;;;22.90;92.40;;;;;;5038957;28;20072;-68
2023/07/21 09:27:15;;;;;;;2.10;1.30;;;22.70;92.60;;;;;;5048732;28;20075;-68
2023/07/21 09:29:42;;;;;;;1.73;0.90;;;22.40;92.90;;;;;;5048697;28;20037;-68
2023/07/21 09:32:13;;;;;;;1.35;1.10;;;22.10;93.30;;;;;;5048744;28;20470;-68
2023/07/21 09:34:59;;;;;;;1.92;1.38;;;22.00;93.30;;;;;;5046155;28;20037;-68
2023/07/21 09:37:27;;;;;;;1.05;0.95;;;22.20;93.90;;;;;;5037349;28;20083;-67
2023/07/21 09:39:56;;;;;;;6.90;1.85;;;22.30;93.30;;;;;;5047542;28;20041;-67
2023/07/21 09:42:23;;;;;;;2.17;1.10;;;22.30;93.00;;;;;;5041821;28;20041;-67
2023/07/21 09:44:49;;;;;;;2.17;1.17;;;22.30;93.60;;;;;;5045720;28;20037;-69
2023/07/21 09:47:19;;;;;;;1.88;1.20;;;22.40;93.40;;;;;;5039351;28;20035;-68
2023/07/21 09:49:45;;;;;;;3.15;1.20;;;22.60;93.60;;;;;;5045967;28;20037;-68
2023/07/21 09:52:18;;;;;;;1.80;1.20;;;22.70;93.60;;;;;;5041999;28;20043;-68
2023/07/21 09:54:47;;;;;;;2.25;1.08;;;22.80;92.50;;;;;;5040272;28;20068;-68
2023/07/21 09:57:17;;;;;;;3.83;1.77;;;23.00;91.90;;;;;;5050985;28;20132;-68
2023/07/21 09:59:49;;;;;;;2.17;1.50;;;23.00;90.90;;;;;;5050723;28;20041;-68
2023/07/21 10:02:16;;;;;;;4.80;1.50;;;23.10;89.70;;;;;;5030859;28;20041;-68
2023/07/21 10:04:43;;;;;;;2.08;1.25;;;23.20;88.20;;;;;;5034656;28;20040;-68
2023/07/21 10:07:10;;;;;;;3.28;1.30;;;23.30;88.90;;;;;;5044363;28;20068;-68
2023/07/21 10:09:36;;;;;;;1.50;1.40;;;23.50;90.00;;;;;;5048223;28;20088;-68
2023/07/21 10:12:14;;;;;;;2.78;1.60;;;23.60;89.00;;;;;;5047453;28;20044;-68
2023/07/21 10:14:40;;;;;;;1.63;1.48;;;23.50;88.60;;;;;;5050041;28;20482;-68
2023/07/21 10:17:08;;;;;;;3.28;1.45;;;23.30;89.10;;;;;;5051054;28;20069;-68
2023/07/21 10:19:44;;;;;;;2.80;1.42;;;23.00;89.50;;;;;;5046169;28;20049;-68
2023/07/21 10:22:23;;;;;;;2.13;1.63;;;22.80;89.40;;;;;;5038330;28;20116;-67
2023/07/21 10:24:54;;;;;;;2.13;1.30;;;22.70;89.90;;;;;;5044018;28;20029;-68
2023/07/21 10:27:23;;;;;;;1.85;1.25;;;22.60;90.50;;;;;;5039757;28;20088;-67
2023/07/21 10:29:53;;;;;;;4.38;2.03;;;22.50;89.90;;;;;;5045539;28;20033;-68
2023/07/21 10:32:22;;;;;;;1.42;1.15;;;22.30;89.60;;;;;;5051933;28;20497;-68
2023/07/21 10:34:48;;;;;;;1.80;1.40;;;22.30;90.40;;;;;;5044546;28;20037;-68
2023/07/21 10:37:15;;;;;;;1.95;1.58;;;22.30;90.40;;;;;;5052676;28;20041;-67
2023/07/21 10:39:42;;;;;;;2.30;1.20;;;22.40;91.10;;;;;;5054798;28;20124;-67
2023/07/21 10:42:10;;;;;;;2.83;1.38;;;22.40;91.10;;;;;;5049340;28;20037;-67
2023/07/21 10:44:40;;;;;;;3.15;1.52;;;22.40;90.70;;;;;;5047216;28;20047;-67
2023/07/21 10:47:15;;;;;;;1.35;1.25;;;22.40;90.40;;;;;;5051781;28;20033;-68
2023/07/21 10:49:41;;;;;;;1.60;1.08;;;22.50;91.10;;;;;;5048690;28;20048;-67
2023/07/21 10:52:07;;;;;;;1.27;0.95;;;22.60;90.40;;;;;;5051948;28;20045;-68
2023/07/21 10:54:34;;;;;;;2.97;1.50;;;22.70;90.50;;;;;;5048238;28;20036;-67
2023/07/21 10:57:00;;;;;;;1.50;1.15;;;23.00;89.60;;;;;;5050460;28;20053;-67
2023/07/21 10:59:34;;;;;;;2.35;1.30;;;23.20;89.70;;;;;;5049331;28;20040;-68
2023/07/21 11:02:02;;;;;;;2.45;1.40;;;23.20;88.50;;;;;;5053763;28;20397;-68
2023/07/21 11:04:29;;;;;;;3.25;1.80;;;23.20;88.70;;;;;;5051558;28;20108;-68
2023/07/21 11:06:57;;;;;;;3.47;1.40;;;23.30;87.30;;;;;;5046151;28;20079;-70
2023/07/21 11:09:24;;;;;;;1.30;1.20;;;23.30;86.60;;;;;;5052508;28;20040;-70
2023/07/21 11:11:52;;;;;;;2.17;1.42;;;23.30;87.20;;;;;;5052552;28;20033;-70
2023/07/21 11:14:25;;;;;;;1.98;1.20;;;23.20;85.30;;;;;;5051875;22;20042;-65
2023/07/21 11:17:01;;;;;;;1.27;1.13;;;23.10;84.40;;;;;;5032474;28;20033;-65
2023/07/21 11:19:29;;;;;;;1.80;1.40;;;23.00;83.60;;;;;;5028508;28;20054;-65
2023/07/21 11:21:55;;;;;;;1.10;1.00;;;22.80;83.80;;;;;;5024570;28;20033;-65
2023/07/21 11:24:25;;;;;;;2.95;1.10;;;22.80;84.60;;;;;;5015321;28;20037;-65
2023/07/21 11:26:53;;;;;;;2.20;1.25;;;22.80;86.30;;;;;;5012900;28;20075;-65
2023/07/21 11:29:20;;;;;;;2.80;1.70;;;22.90;85.90;;;;;;5004511;28;20026;-65
2023/07/21 11:31:46;;;;;;;1.67;1.50;;;23.00;84.40;;;;;;5013190;28;20436;-65
2023/07/21 11:34:25;;;;;;;3.72;1.80;;;23.10;84.00;;;;;;5001135;28;20056;-65
2023/07/21 11:36:59;;;;;;;2.00;1.48;;;23.20;85.10;;;;;;5012059;28;20040;-65
2023/07/21 11:39:29;;;;;;;2.10;1.55;;;23.20;84.80;;;;;;5013373;28;20503;-65
2023/07/21 11:41:56;;;;;;;2.30;1.90;;;23.30;84.60;;;;;;5012323;28;20369;-65
2023/07/21 11:44:35;;;;;;;3.55;1.67;;;23.30;84.40;;;;;;5012932;28;20120;-65
2023/07/21 11:47:05;;;;;;;2.45;1.92;;;23.50;83.80;;;;;;5013331;28;20041;-65
2023/07/21 11:49:39;;;;;;;3.05;1.67;;;23.50;83.00;;;;;;5009505;28;20458;-65
2023/07/21 11:52:06;;;;;;;3.17;1.80;;;23.60;83.00;;;;;;5009466;28;20128;-65
2023/07/21 11:54:43;;;;;;;2.10;1.90;;;23.60;82.70;;;;;;5012701;28;20045;-65
2023/07/21 11:57:11;;;;;;;2.72;1.85;;;23.60;84.20;;;;;;5012669;28;20041;-65
2023/07/21 11:59:37;;;;;;;3.08;1.40;;;23.60;84.20;;;;;;5004241;28;20049;-65
2023/07/21 12:02:04;;;;;;;3.17;1.30;;;23.60;83.60;;;;;;5011464;28;20042;-65
2023/07/21 12:04:32;;;;;;;2.00;1.60;;;23.70;81.80;;;;;;5010728;28;20085;-65
2023/07/21 12:06:57;;;;;;;1.70;1.40;;;23.80;80.40;;;;;;5012412;28;20172;-65
2023/07/21 12:09:23;;;;;;;1.65;1.15;;;23.90;79.70;;;;;;5007162;28;20157;-65
2023/07/21 12:11:52;;;;;;;3.20;1.40;;;23.90;80.50;;;;;;5012176;28;20042;-66
2023/07/21 12:14:17;;;;;;;2.72;1.33;;;23.90;80.20;;;;;;5004918;28;20034;-65
2023/07/21 12:16:45;;;;;;;3.28;1.63;;;23.80;79.90;;;;;;5012826;28;20514;-65
2023/07/21 12:19:11;;;;;;;2.03;1.30;;;23.80;78.70;;;;;;5008950;28;20113;-65
2023/07/21 12:21:37;;;;;;;2.97;1.95;;;23.80;80.10;;;;;;5006232;28;20065;-65
2023/07/21 12:24:03;;;;;;;3.72;1.40;;;23.90;81.00;;;;;;5009068;28;20042;-65
2023/07/21 12:26:28;;;;;;;2.50;1.70;;;24.00;81.30;;;;;;5010688;28;20128;-65
2023/07/21 12:28:55;;;;;;;3.83;1.83;;;24.20;81.60;;;;;;5005971;28;20116;-65
2023/07/21 12:31:20;;;;;;;1.45;1.35;;;24.30;79.70;;;;;;5007784;28;20049;-65
2023/07/21 12:33:48;;;;;;;2.13;1.55;;;24.40;81.00;;;;;;5007934;28;20033;-65
2023/07/21 12:36:17;;;;;;;1.58;1.48;;;24.40;78.80;;;;;;5001442;28;20625;-65
2023/07/21 12:38:44;;;;;;;2.37;1.30;;;24.50;80.20;;;;;;5011455;28;20053;-65
2023/07/21 12:41:10;;;;;;;1.63;1.13;;;24.50;78.40;;;;;;5012200;28;20087;-65
2023/07/21 12:43:37;;;;;;;3.28;1.05;;;24.60;76.70;;;;;;5009697;28;20034;-65
2023/07/21 12:46:03;;;;;;;1.55;1.10;;;24.60;74.00;;;;;;5012041;28;20025;-65
2023/07/21 12:48:30;;;;;;;2.17;1.48;;;24.60;73.10;;;;;;5004897;28;20042;-65